createdAt,value
2024-02-14T00:00:20.328Z,99965.53
2024-02-14T00:02:48.064Z,99968.44
2024-02-14T00:05:15.358Z,99971.41
2024-02-14T00:07:43.057Z,99972.72
2024-02-14T00:10:10.691Z,99976.69
2024-02-14T00:12:37.937Z,99985.47
2024-02-14T00:15:06.255Z,99989.75
2024-02-14T00:17:33.812Z,99980.41
2024-02-14T00:20:04.339Z,99988.13
2024-02-14T00:22:32.547Z,99983.53
2024-02-14T00:24:59.830Z,99992.31
2024-02-14T00:27:27.260Z,99987.00
2024-02-14T00:29:54.602Z,99993.66
2024-02-14T00:32:21.856Z,99998.13
2024-02-14T00:34:49.338Z,99999.50
2024-02-14T00:37:16.979Z,100002.16
2024-02-14T00:39:44.128Z,100006.69
2024-02-14T00:42:11.285Z,100008.84
2024-02-14T00:44:38.699Z,99999.22
2024-02-14T00:47:06.067Z,100006.09
2024-02-14T00:49:36.211Z,100009.88
2024-02-14T00:52:03.736Z,100011.44
2024-02-14T00:54:30.928Z,100014.06
2024-02-14T00:56:58.244Z,100013.31
2024-02-14T00:59:25.570Z,100011.38
2024-02-14T01:01:53.105Z,100004.94
2024-02-14T01:04:20.339Z,100001.47
2024-02-14T01:06:47.712Z,100011.09
2024-02-14T01:09:14.973Z,100010.84
2024-02-14T01:11:42.143Z,100011.88
2024-02-14T01:14:09.450Z,100013.00
2024-02-14T01:16:44.037Z,100022.50
2024-02-14T01:19:11.875Z,100021.13
2024-02-14T01:21:39.472Z,100024.09
2024-02-14T01:24:07.132Z,100022.19
2024-02-14T01:26:34.413Z,100021.91
2024-02-14T01:29:01.512Z,100019.81
2024-02-14T01:31:28.801Z,100028.91
2024-02-14T01:33:57.513Z,100030.47
2024-02-14T01:36:24.922Z,100032.13
2024-02-14T01:38:52.166Z,100035.09
2024-02-14T01:41:19.335Z,100048.34
2024-02-14T01:43:46.443Z,100033.16
2024-02-14T01:46:14.139Z,100044.00
2024-02-14T01:48:42.822Z,100046.13
2024-02-14T01:51:14.081Z,100051.31
2024-02-14T01:53:41.935Z,100053.47
2024-02-14T01:56:09.633Z,100052.41
2024-02-14T01:58:38.114Z,100047.84
2024-02-14T02:01:05.753Z,100047.00
2024-02-14T02:03:33.161Z,100057.06
2024-02-14T02:06:00.578Z,100053.34
2024-02-14T02:08:28.182Z,100052.31
2024-02-14T02:10:55.464Z,100047.94
2024-02-14T02:13:22.686Z,100054.66
2024-02-14T02:15:49.958Z,100049.31
2024-02-14T02:18:17.449Z,100057.09
2024-02-14T02:20:45.055Z,100045.88
2024-02-14T02:23:13.227Z,100045.59
2024-02-14T02:25:40.495Z,100054.06
2024-02-14T02:28:07.804Z,100055.97
2024-02-14T02:30:35.464Z,100053.72
2024-02-14T02:33:03.347Z,100051.03
2024-02-14T02:35:30.937Z,100067.47
2024-02-14T02:37:58.185Z,100062.28
2024-02-14T02:40:26.205Z,100060.09
2024-02-14T02:42:53.792Z,100065.78
2024-02-14T02:45:21.141Z,100067.41
2024-02-14T02:47:48.653Z,100070.91
2024-02-14T02:50:16.009Z,100071.72
2024-02-14T02:52:43.193Z,100078.28
2024-02-14T02:55:10.636Z,100077.66
2024-02-14T02:57:37.756Z,100083.59
2024-02-14T03:00:08.053Z,100085.19
2024-02-14T03:02:36.454Z,100084.34
2024-02-14T03:05:03.935Z,100085.34
2024-02-14T03:07:31.210Z,100090.34
2024-02-14T03:09:58.393Z,100097.25
2024-02-14T03:12:25.555Z,100099.69
2024-02-14T03:14:53.599Z,100108.28
2024-02-14T03:17:20.821Z,100108.47
2024-02-14T03:19:48.212Z,100111.00
2024-02-14T03:22:15.607Z,100114.44
2024-02-14T03:24:42.828Z,100119.09
2024-02-14T03:27:10.055Z,100117.91
2024-02-14T03:29:37.342Z,100129.09
2024-02-14T03:32:04.789Z,100125.97
2024-02-14T03:34:33.005Z,100127.72
2024-02-14T03:37:01.327Z,100138.66
2024-02-14T03:39:28.839Z,100130.53
2024-02-14T03:41:57.226Z,100133.66
2024-02-14T03:44:24.460Z,100152.16
2024-02-14T03:46:51.717Z,100152.75
2024-02-14T03:49:18.990Z,100151.97
2024-02-14T03:51:46.399Z,100154.59
2024-02-14T03:54:13.647Z,100161.91
2024-02-14T03:56:40.924Z,100165.56
2024-02-14T03:59:08.214Z,100169.28
2024-02-14T04:01:35.524Z,100170.72
2024-02-14T04:04:02.902Z,100163.69
2024-02-14T04:06:30.424Z,100168.47
2024-02-14T04:08:57.754Z,100175.44
2024-02-14T04:11:25.040Z,100174.69
2024-02-14T04:13:52.186Z,100181.81
2024-02-14T04:16:22.220Z,100190.31
2024-02-14T04:18:49.559Z,100184.03
2024-02-14T04:21:16.944Z,100184.94
2024-02-14T04:23:44.211Z,100186.25
2024-02-14T04:26:19.012Z,100191.56
2024-02-14T04:28:46.167Z,100196.88
2024-02-14T04:31:13.394Z,100197.38
2024-02-14T04:33:40.802Z,100216.38
2024-02-14T04:36:08.248Z,100214.56
2024-02-14T04:38:35.887Z,100209.78
2024-02-14T04:41:03.212Z,100204.50
2024-02-14T04:43:30.625Z,100209.94
2024-02-14T04:45:57.841Z,100216.47
2024-02-14T04:48:25.142Z,100228.84
2024-02-14T04:50:52.620Z,100223.88
2024-02-14T04:53:19.974Z,100219.22
2024-02-14T04:55:47.173Z,100215.81
2024-02-14T04:58:14.442Z,100209.97
2024-02-14T05:00:41.833Z,100202.88
2024-02-14T05:03:09.075Z,100206.03
2024-02-14T05:05:36.939Z,100216.69
2024-02-14T05:08:04.707Z,100231.84
2024-02-14T05:10:32.690Z,100235.50
2024-02-14T05:13:00.449Z,100244.22
2024-02-14T05:15:27.972Z,100236.06
2024-02-14T05:17:55.480Z,100238.81
2024-02-14T05:20:23.108Z,100238.34
2024-02-14T05:22:50.581Z,100241.47
2024-02-14T05:25:17.849Z,100241.25
2024-02-14T05:27:45.276Z,100236.00
2024-02-14T05:30:12.776Z,100245.66
2024-02-14T05:32:40.029Z,100249.91
2024-02-14T05:35:07.737Z,100259.00
2024-02-14T05:37:37.799Z,100269.38
2024-02-14T05:40:06.821Z,100266.56
2024-02-14T05:42:34.099Z,100267.25
2024-02-14T05:45:01.593Z,100276.19
2024-02-14T05:47:28.824Z,100274.97
2024-02-14T05:49:56.151Z,100280.72
2024-02-14T05:52:23.439Z,100272.81
2024-02-14T05:54:50.679Z,100280.28
2024-02-14T05:57:17.917Z,100278.72
2024-02-14T05:59:45.854Z,100285.19
2024-02-14T06:02:13.330Z,100283.91
2024-02-14T06:04:41.194Z,100286.59
2024-02-14T06:07:08.924Z,100289.53
2024-02-14T06:09:36.822Z,100290.44
2024-02-14T06:12:05.032Z,100300.59
2024-02-14T06:14:32.748Z,100296.56
2024-02-14T06:17:00.660Z,100306.69
2024-02-14T06:19:28.861Z,100316.56
2024-02-14T06:21:56.674Z,100308.69
2024-02-14T06:24:25.034Z,100316.44
2024-02-14T06:26:52.688Z,100321.09
2024-02-14T06:29:20.260Z,100323.38
2024-02-14T06:31:47.882Z,100322.25
2024-02-14T06:34:15.306Z,100317.84
2024-02-14T06:36:42.628Z,100317.06
2024-02-14T06:39:09.942Z,100329.78
2024-02-14T06:41:37.144Z,100326.66
2024-02-14T06:44:05.562Z,100325.28
2024-02-14T06:46:32.793Z,100334.06
2024-02-14T06:49:00.151Z,100330.41
2024-02-14T06:51:27.506Z,100334.13
2024-02-14T06:53:54.740Z,100331.03
2024-02-14T06:56:22.069Z,100338.44
2024-02-14T06:58:49.401Z,100332.81
2024-02-14T07:01:16.640Z,100338.53
2024-02-14T07:03:43.887Z,100346.25
2024-02-14T07:06:11.266Z,100340.72
2024-02-14T07:08:38.474Z,100340.38
2024-02-14T07:11:05.971Z,100349.44
2024-02-14T07:13:33.306Z,100352.81
2024-02-14T07:16:00.532Z,100351.94
2024-02-14T07:18:27.918Z,100350.00
2024-02-14T07:20:55.389Z,100351.03
2024-02-14T07:23:22.658Z,100346.06
2024-02-14T07:25:49.810Z,100361.81
2024-02-14T07:28:16.963Z,100365.31
2024-02-14T07:30:45.004Z,100371.19
2024-02-14T07:33:12.702Z,100363.44
2024-02-14T07:35:40.011Z,100368.97
2024-02-14T07:38:07.345Z,100380.31
2024-02-14T07:40:34.785Z,100389.38
2024-02-14T07:43:02.393Z,100385.13
2024-02-14T07:45:30.110Z,100380.53
2024-02-14T07:47:57.455Z,100382.38
2024-02-14T07:50:24.978Z,100385.66
2024-02-14T07:52:52.403Z,100377.03
2024-02-14T07:55:19.811Z,100380.75
2024-02-14T07:57:46.988Z,100388.56
2024-02-14T08:00:14.827Z,100397.34
2024-02-14T08:02:42.246Z,100395.25
2024-02-14T08:05:09.744Z,100400.88
2024-02-14T08:07:37.287Z,100395.78
2024-02-14T08:10:05.134Z,100391.53
2024-02-14T08:12:32.371Z,100393.06
2024-02-14T08:14:59.817Z,100398.91
2024-02-14T08:17:27.196Z,100404.50
2024-02-14T08:19:54.617Z,100400.19
2024-02-14T08:22:21.975Z,100396.88
2024-02-14T08:24:49.247Z,100399.84
2024-02-14T08:27:16.521Z,100403.94
2024-02-14T08:29:46.414Z,100405.81
2024-02-14T08:32:13.849Z,100407.97
2024-02-14T08:34:41.350Z,100412.00
2024-02-14T08:37:08.750Z,100407.25
2024-02-14T08:39:35.930Z,100415.31
2024-02-14T08:42:03.168Z,100415.34
2024-02-14T08:44:30.532Z,100421.50
2024-02-14T08:46:57.944Z,100415.34
2024-02-14T08:49:25.204Z,100414.78
2024-02-14T08:51:52.872Z,100423.09
2024-02-14T08:54:20.266Z,100420.41
2024-02-14T08:56:47.707Z,100424.69
2024-02-14T08:59:15.282Z,100428.72
2024-02-14T09:01:42.768Z,100423.91
2024-02-14T09:04:10.010Z,100440.22
2024-02-14T09:06:37.604Z,100434.84
2024-02-14T09:09:05.211Z,100437.78
2024-02-14T09:11:32.623Z,100441.81
2024-02-14T09:14:00.000Z,100440.22
2024-02-14T09:16:27.463Z,100445.56
2024-02-14T09:18:54.965Z,100443.97
2024-02-14T09:21:22.485Z,100444.78
2024-02-14T09:23:50.181Z,100443.16
2024-02-14T09:26:17.694Z,100441.53
2024-02-14T09:28:45.217Z,100446.88
2024-02-14T09:31:12.688Z,100441.78
2024-02-14T09:33:40.404Z,100449.97
2024-02-14T09:36:08.026Z,100446.69
2024-02-14T09:38:35.450Z,100447.25
2024-02-14T09:41:11.938Z,100446.00
2024-02-14T09:43:41.155Z,100455.59
2024-02-14T09:46:08.859Z,100446.59
2024-02-14T09:48:37.415Z,100455.63
2024-02-14T09:51:06.394Z,100450.47
2024-02-14T09:53:34.585Z,100444.63
2024-02-14T09:56:03.610Z,100452.31
2024-02-14T09:58:32.253Z,100452.91
2024-02-14T10:00:59.782Z,100441.84
2024-02-14T10:03:27.309Z,100443.56
2024-02-14T10:05:55.377Z,100428.47
2024-02-14T10:08:23.894Z,100433.84
2024-02-14T10:10:53.157Z,100438.41
2024-02-14T10:13:21.822Z,100438.44
2024-02-14T10:15:49.333Z,100438.28
2024-02-14T10:18:16.943Z,100433.84
2024-02-14T10:20:54.921Z,100423.81
2024-02-14T10:23:22.462Z,100439.44
2024-02-14T10:25:56.918Z,100419.22
2024-02-14T10:28:30.233Z,100426.81
2024-02-14T10:31:06.653Z,100420.63
2024-02-14T10:33:34.224Z,100427.91
2024-02-14T10:36:03.260Z,100430.00
2024-02-14T10:38:33.828Z,100420.59
2024-02-14T10:41:02.007Z,100426.53
2024-02-14T10:43:29.654Z,100422.91
2024-02-14T10:46:00.120Z,100411.66
2024-02-14T10:48:32.745Z,100423.75
2024-02-14T10:51:03.800Z,100420.38
2024-02-14T10:53:34.725Z,100420.13
2024-02-14T10:56:03.218Z,100418.13
2024-02-14T10:58:31.840Z,100422.47
2024-02-14T11:01:00.700Z,100416.16
2024-02-14T11:03:28.824Z,100424.31
2024-02-14T11:05:56.410Z,100429.31
2024-02-14T11:08:23.988Z,100423.97
2024-02-14T11:10:56.447Z,100416.66
2024-02-14T11:13:30.761Z,100411.28
2024-02-14T11:16:01.372Z,100410.59
2024-02-14T11:18:31.259Z,100404.56
2024-02-14T11:20:59.191Z,100407.28
2024-02-14T11:23:27.001Z,100410.44
2024-02-14T11:26:01.870Z,100402.06
2024-02-14T11:28:29.980Z,100413.81
2024-02-14T11:31:08.578Z,100396.81
2024-02-14T11:33:36.200Z,100405.34
2024-02-14T11:36:10.075Z,100403.53
2024-02-14T11:38:41.165Z,100414.16
2024-02-14T11:41:08.791Z,100408.63
2024-02-14T11:43:36.291Z,100407.28
2024-02-14T11:46:03.811Z,100404.25
2024-02-14T11:48:31.463Z,100402.63
2024-02-14T11:50:59.068Z,100408.63
2024-02-14T11:53:26.562Z,100409.41
2024-02-14T11:55:54.296Z,100399.91
2024-02-14T11:58:21.769Z,100401.56
2024-02-14T12:00:49.326Z,100389.97
2024-02-14T12:03:20.278Z,100399.41
2024-02-14T12:05:50.380Z,100398.66
2024-02-14T12:08:18.687Z,100402.84
2024-02-14T12:10:47.394Z,100406.25
2024-02-14T12:13:17.678Z,100405.53
2024-02-14T12:15:48.039Z,100409.13
2024-02-14T12:18:17.513Z,100407.81
2024-02-14T12:20:45.425Z,100402.88
2024-02-14T12:23:17.413Z,100403.31
2024-02-14T12:25:45.723Z,100402.44
2024-02-14T12:28:20.255Z,100401.38
2024-02-14T12:30:52.017Z,100393.97
2024-02-14T12:33:19.662Z,100383.47
2024-02-14T12:35:48.501Z,100389.19
2024-02-14T12:38:19.129Z,100391.94
2024-02-14T12:40:46.873Z,100387.97
2024-02-14T12:43:15.952Z,100395.16
2024-02-14T12:45:43.893Z,100399.03
2024-02-14T12:48:12.535Z,100392.19
2024-02-14T12:50:39.997Z,100396.66
2024-02-14T12:53:08.523Z,100399.00
2024-02-14T12:55:36.005Z,100396.97
2024-02-14T12:58:03.871Z,100397.94
2024-02-14T13:00:31.489Z,100398.91
2024-02-14T13:02:59.041Z,100399.72
2024-02-14T13:05:26.479Z,100401.59
2024-02-14T13:07:54.008Z,100404.19
2024-02-14T13:10:21.505Z,100402.03
2024-02-14T13:12:48.979Z,100405.16
2024-02-14T13:15:16.659Z,100401.69
2024-02-14T13:17:44.184Z,100404.13
2024-02-14T13:20:12.216Z,100397.97
2024-02-14T13:22:39.777Z,100411.28
2024-02-14T13:25:07.546Z,100409.00
2024-02-14T13:27:34.995Z,100409.59
2024-02-14T13:30:06.311Z,100405.53
2024-02-14T13:32:34.029Z,100402.59
2024-02-14T13:35:01.588Z,100399.00
2024-02-14T13:37:29.332Z,100403.47
2024-02-14T13:39:56.667Z,100407.94
2024-02-14T13:42:24.142Z,100403.25
2024-02-14T13:44:51.636Z,100398.28
2024-02-14T13:47:19.450Z,100407.72
2024-02-14T13:49:46.875Z,100410.88
2024-02-14T13:52:14.421Z,100416.06
2024-02-14T13:54:41.799Z,100409.75
2024-02-14T13:57:10.525Z,100412.91
2024-02-14T13:59:38.364Z,100419.25
2024-02-14T14:02:06.100Z,100419.81
2024-02-14T14:04:34.044Z,100414.91
2024-02-14T14:07:01.945Z,100417.41
2024-02-14T14:09:29.332Z,100426.03
2024-02-14T14:11:56.816Z,100422.19
2024-02-14T14:14:24.201Z,100418.47
2024-02-14T14:16:51.696Z,100425.50
2024-02-14T14:19:19.259Z,100425.69
2024-02-14T14:21:46.798Z,100420.13
2024-02-14T14:24:16.902Z,100429.84
2024-02-14T14:26:44.390Z,100431.75
2024-02-14T14:29:11.860Z,100430.69
2024-02-14T14:31:39.232Z,100431.56
2024-02-14T14:34:06.664Z,100436.53
2024-02-14T14:36:34.155Z,100432.97
2024-02-14T14:39:01.620Z,100442.06
2024-02-14T14:41:29.128Z,100438.25
2024-02-14T14:43:56.697Z,100440.19
2024-02-14T14:46:24.024Z,100450.94
2024-02-14T14:48:51.649Z,100448.53
2024-02-14T14:51:19.364Z,100447.97
2024-02-14T14:53:47.048Z,100455.50
2024-02-14T14:56:14.464Z,100446.66
2024-02-14T14:58:42.013Z,100448.03
2024-02-14T15:01:09.544Z,100440.53
2024-02-14T15:03:36.897Z,100449.91
2024-02-14T15:06:04.650Z,100451.78
2024-02-14T15:08:32.214Z,100453.44
2024-02-14T15:10:59.717Z,100457.22
2024-02-14T15:13:27.253Z,100452.41
2024-02-14T15:15:54.780Z,100456.69
2024-02-14T15:18:22.234Z,100458.28
2024-02-14T15:20:49.805Z,100452.13
2024-02-14T15:23:17.214Z,100458.84
2024-02-14T15:25:44.588Z,100467.41
2024-02-14T15:28:12.480Z,100464.72
2024-02-14T15:30:39.927Z,100470.88
2024-02-14T15:33:07.486Z,100476.81
2024-02-14T15:35:35.134Z,100481.41
2024-02-14T15:38:02.704Z,100476.84
2024-02-14T15:40:30.086Z,100481.94
2024-02-14T15:42:57.485Z,100480.31
2024-02-14T15:45:24.991Z,100488.34
2024-02-14T15:47:52.602Z,100487.25
2024-02-14T15:50:19.986Z,100495.31
2024-02-14T15:52:47.359Z,100498.50
2024-02-14T15:55:14.890Z,100504.41
2024-02-14T15:57:42.226Z,100503.34
2024-02-14T16:00:10.382Z,100508.41
2024-02-14T16:02:38.031Z,100514.97
2024-02-14T16:05:05.801Z,100517.22
2024-02-14T16:07:33.170Z,100519.66
2024-02-14T16:10:00.535Z,100510.84
2024-02-14T16:12:27.962Z,100518.88
2024-02-14T16:14:55.524Z,100510.59
2024-02-14T16:17:23.052Z,100520.22
2024-02-14T16:19:50.533Z,100519.44
2024-02-14T16:22:18.253Z,100526.38
2024-02-14T16:24:45.664Z,100525.31
2024-02-14T16:27:13.075Z,100538.69
2024-02-14T16:29:40.573Z,100548.75
2024-02-14T16:32:08.200Z,100558.97
2024-02-14T16:34:36.015Z,100547.97
2024-02-14T16:37:03.936Z,100556.28
2024-02-14T16:39:41.574Z,100551.53
2024-02-14T16:42:11.858Z,100552.88
2024-02-14T16:44:39.665Z,100556.91
2024-02-14T16:47:07.750Z,100557.38
2024-02-14T16:49:35.900Z,100557.91
2024-02-14T16:52:04.943Z,100563.16
2024-02-14T16:54:33.059Z,100563.75
2024-02-14T16:57:01.716Z,100557.59
2024-02-14T16:59:28.975Z,100565.59
2024-02-14T17:01:56.128Z,100564.78
2024-02-14T17:04:23.401Z,100566.66
2024-02-14T17:06:50.742Z,100568.03
2024-02-14T17:09:18.118Z,100578.66
2024-02-14T17:11:45.580Z,100568.50
2024-02-14T17:14:12.917Z,100579.72
2024-02-14T17:16:40.372Z,100570.97
2024-02-14T17:19:07.799Z,100577.09
2024-02-14T17:21:35.432Z,100575.94
2024-02-14T17:24:03.230Z,100575.97
2024-02-14T17:26:30.703Z,100577.03
2024-02-14T17:28:58.350Z,100580.75
2024-02-14T17:31:25.830Z,100578.59
2024-02-14T17:33:53.491Z,100581.53
2024-02-14T17:36:20.998Z,100583.19
2024-02-14T17:38:48.544Z,100588.28
2024-02-14T17:41:15.899Z,100587.22
2024-02-14T17:43:43.269Z,100581.88
2024-02-14T17:46:10.890Z,100591.03
2024-02-14T17:48:38.740Z,100588.84
2024-02-14T17:51:06.385Z,100594.41
2024-02-14T17:53:33.812Z,100583.19
2024-02-14T17:56:01.191Z,100592.28
2024-02-14T17:58:28.471Z,100589.34
2024-02-14T18:00:55.880Z,100597.09
2024-02-14T18:03:23.434Z,100593.13
2024-02-14T18:05:50.983Z,100604.84
2024-02-14T18:08:18.375Z,100603.75
2024-02-14T18:10:45.800Z,100609.06
2024-02-14T18:13:13.609Z,100613.38
2024-02-14T18:15:41.207Z,100610.22
2024-02-14T18:18:08.673Z,100617.38
2024-02-14T18:20:36.068Z,100619.72
2024-02-14T18:23:03.715Z,100623.34
2024-02-14T18:25:31.213Z,100631.38
2024-02-14T18:27:58.985Z,100626.66
2024-02-14T18:30:26.612Z,100628.69
2024-02-14T18:32:54.129Z,100633.47
2024-02-14T18:35:21.883Z,100636.00
2024-02-14T18:37:49.646Z,100634.75
2024-02-14T18:40:17.199Z,100641.38
2024-02-14T18:42:44.589Z,100635.47
2024-02-14T18:45:12.119Z,100644.53
2024-02-14T18:47:39.743Z,100651.22
2024-02-14T18:50:07.604Z,100654.41
2024-02-14T18:52:35.128Z,100649.25
2024-02-14T18:55:02.498Z,100650.00
2024-02-14T18:57:29.959Z,100653.25
2024-02-14T18:59:59.276Z,100655.09
2024-02-14T19:02:26.691Z,100653.19
2024-02-14T19:04:54.212Z,100661.06
2024-02-14T19:07:21.619Z,100663.56
2024-02-14T19:09:49.021Z,100669.91
2024-02-14T19:12:16.650Z,100655.22
2024-02-14T19:14:44.506Z,100662.78
2024-02-14T19:17:39.320Z,100661.94
2024-02-14T19:20:31.192Z,100670.81
2024-02-14T19:23:23.120Z,100674.75
2024-02-14T19:26:15.332Z,100671.25
2024-02-14T19:29:09.736Z,100671.75
2024-02-14T19:32:01.145Z,100681.78
2024-02-14T19:34:53.131Z,100685.03
2024-02-14T19:37:45.301Z,100687.78
2024-02-14T19:40:36.838Z,100685.03
2024-02-14T19:43:35.235Z,100694.63
2024-02-14T19:46:31.185Z,100689.03
2024-02-14T19:49:24.859Z,100705.13
2024-02-14T19:52:16.926Z,100696.25
2024-02-14T19:55:09.302Z,100702.06
2024-02-14T19:58:01.349Z,100717.28
2024-02-14T20:00:53.114Z,100706.84
2024-02-14T20:03:45.803Z,100711.66
2024-02-14T20:06:38.309Z,100711.63
2024-02-14T20:09:30.241Z,100712.06
2024-02-14T20:12:22.059Z,100713.41
2024-02-14T20:15:14.282Z,100720.84
2024-02-14T20:18:06.353Z,100724.28
2024-02-14T20:20:58.511Z,100725.56
2024-02-14T20:23:50.142Z,100730.13
2024-02-14T20:26:42.065Z,100729.00
2024-02-14T20:29:34.687Z,100725.94
2024-02-14T20:32:26.165Z,100733.72
2024-02-14T20:35:18.609Z,100731.22
2024-02-14T20:38:10.243Z,100728.03
2024-02-14T20:41:01.821Z,100725.78
2024-02-14T20:43:54.206Z,100739.00
2024-02-14T20:46:46.136Z,100733.41
2024-02-14T20:49:39.453Z,100734.06
2024-02-14T20:52:31.268Z,100741.84
2024-02-14T20:55:22.854Z,100743.16
2024-02-14T20:58:15.127Z,100731.81
2024-02-14T21:01:07.161Z,100743.13
2024-02-14T21:03:59.127Z,100739.19
2024-02-14T21:06:51.354Z,100741.03
2024-02-14T21:09:43.680Z,100741.91
2024-02-14T21:12:34.689Z,100745.59
2024-02-14T21:15:26.807Z,100742.00
2024-02-14T21:18:19.200Z,100746.53
2024-02-14T21:21:11.412Z,100749.38
2024-02-14T21:24:03.805Z,100741.53
2024-02-14T21:26:56.501Z,100741.06
2024-02-14T21:29:48.232Z,100751.06
2024-02-14T21:32:40.406Z,100750.03
2024-02-14T21:35:32.201Z,100745.16
2024-02-14T21:38:24.142Z,100744.28
2024-02-14T21:41:16.286Z,100749.41
2024-02-14T21:44:08.104Z,100746.69
2024-02-14T21:47:00.159Z,100747.19
2024-02-14T21:49:52.841Z,100753.28
2024-02-14T21:52:45.254Z,100752.28
2024-02-14T21:55:36.747Z,100751.97
2024-02-14T21:58:29.072Z,100753.75
2024-02-14T22:01:21.263Z,100752.53
2024-02-14T22:04:13.053Z,100750.06
2024-02-14T22:07:05.357Z,100752.34
2024-02-14T22:09:57.249Z,100745.91
2024-02-14T22:12:48.878Z,100745.41
2024-02-14T22:15:41.525Z,100751.00
2024-02-14T22:18:32.954Z,100764.41
2024-02-14T22:21:25.066Z,100760.97
2024-02-14T22:24:17.061Z,100761.34
2024-02-14T22:27:09.242Z,100762.38
2024-02-14T22:30:01.324Z,100760.25
2024-02-14T22:32:52.994Z,100756.44
2024-02-14T22:35:45.260Z,100750.69
2024-02-14T22:38:37.736Z,100747.69
2024-02-14T22:41:30.442Z,100754.72
2024-02-14T22:44:21.942Z,100751.00
2024-02-14T22:47:14.308Z,100752.03
2024-02-14T22:50:09.077Z,100756.00
2024-02-14T22:53:01.279Z,100755.63
2024-02-14T22:55:53.179Z,100761.31
2024-02-14T22:58:44.812Z,100753.81
2024-02-14T23:01:37.329Z,100755.88
2024-02-14T23:04:28.942Z,100761.91
2024-02-14T23:07:21.018Z,100766.63
2024-02-14T23:10:13.205Z,100760.38
2024-02-14T23:13:05.290Z,100762.13
2024-02-14T23:15:57.147Z,100763.28
2024-02-14T23:18:49.128Z,100753.00
2024-02-14T23:21:41.292Z,100758.78
2024-02-14T23:24:33.203Z,100758.53
2024-02-14T23:27:25.103Z,100760.47
2024-02-14T23:30:16.953Z,100759.88
2024-02-14T23:33:09.268Z,100763.47
2024-02-14T23:36:01.783Z,100769.97
2024-02-14T23:38:53.958Z,100767.63
2024-02-14T23:41:45.972Z,100762.03
2024-02-14T23:44:37.926Z,100768.22
2024-02-14T23:47:30.435Z,100760.50
2024-02-14T23:50:22.593Z,100766.91
2024-02-14T23:53:14.259Z,100769.47
2024-02-14T23:56:07.357Z,100766.13
2024-02-14T23:58:59.128Z,100775.69
